sim
Sign-in with your pilot id or email,
or register
Callsign
Passwort

Schedule Details

Flight Number: DLH1757
Departure: Athens Eleftherios Venizelos (LGAV) at 14:30
Arrival: Munich Airport (EDDM) at 17:05
Route: Lufthansa Passenger Schedule. Enter filed route here before submitting Pirep.

Weather Information
Getting current METAR information for LGAV 192120Z 01016G27KT 9999 FEW025 22/13 Q1015 NOSIG
Getting current METAR information for EDDM 192120Z 32002KT CAVOK 11/10 Q1018 NOSIG

Schedule Frequency

Route Map